Time;durP1;ratioP1;P1;durP2;ratioP2;P2;SDS_P1;SDS_P2;PMS_P1;PMS_P2;Temp;Humidity;BMP_temperature;BMP_pressure;BME280_temperature;BME280_humidity;BME280_pressure;Samples;Min_cycle;Max_cycle;Signal;HPM_P1;HPM_P2
2022/09/23 00:00:34;;;;;;;1.77;1.67;;;23.00;63.70;;;;;;5056550;28;20033;-46
2022/09/23 00:03:00;;;;;;;1.90;1.80;;;22.90;63.40;;;;;;5050905;28;20037;-46
2022/09/23 00:05:27;;;;;;;2.40;1.70;;;22.90;63.40;;;;;;5081205;28;20036;-58
2022/09/23 00:07:56;;;;;;;1.67;1.58;;;22.90;63.40;;;;;;5064193;28;20021;-59
2022/09/23 00:10:23;;;;;;;1.48;1.38;;;22.90;62.50;;;;;;5063370;28;20786;-58
2022/09/23 00:12:49;;;;;;;1.85;1.75;;;22.90;62.00;;;;;;5064043;28;20073;-44
2022/09/23 00:15:16;;;;;;;2.53;1.83;;;22.90;62.00;;;;;;5059968;28;20040;-46
2022/09/23 00:17:42;;;;;;;1.50;1.40;;;22.90;61.40;;;;;;5074265;28;20040;-46
2022/09/23 00:20:09;;;;;;;1.60;1.40;;;22.90;61.50;;;;;;5063070;28;20128;-47
2022/09/23 00:22:37;;;;;;;1.60;1.50;;;22.90;61.70;;;;;;5064246;28;20025;-46
2022/09/23 00:25:04;;;;;;;1.40;1.30;;;22.90;61.50;;;;;;5063240;28;20021;-46
2022/09/23 00:27:32;;;;;;;1.50;1.40;;;22.90;61.60;;;;;;5034990;28;20093;-46
2022/09/23 00:29:59;;;;;;;1.50;1.40;;;22.90;61.80;;;;;;5045813;28;20041;-46
2022/09/23 00:32:25;;;;;;;1.55;1.30;;;22.80;61.60;;;;;;5072248;28;20052;-48
2022/09/23 00:34:51;;;;;;;1.45;1.27;;;22.80;61.50;;;;;;5075675;28;20040;-46
2022/09/23 00:37:18;;;;;;;1.85;1.50;;;22.80;61.60;;;;;;5063657;28;20039;-47
2022/09/23 00:39:45;;;;;;;1.50;1.40;;;22.80;61.70;;;;;;5068864;28;20078;-47
2022/09/23 00:42:16;;;;;;;1.60;1.50;;;22.80;61.90;;;;;;5070093;28;20048;-47
2022/09/23 00:44:49;;;;;;;1.30;1.20;;;22.80;61.80;;;;;;5054395;28;20089;-48
2022/09/23 00:47:38;;;;;;;1.35;1.10;;;22.70;61.60;;;;;;5043687;28;20029;-47
2022/09/23 00:50:07;;;;;;;1.60;1.50;;;22.70;61.70;;;;;;5062653;28;20026;-46
2022/09/23 00:52:33;;;;;;;1.38;1.27;;;22.70;61.80;;;;;;5045091;28;20029;-47
2022/09/23 00:55:01;;;;;;;1.48;1.30;;;22.70;61.90;;;;;;5055865;28;20041;-45
2022/09/23 00:57:27;;;;;;;1.55;1.45;;;22.70;61.70;;;;;;5054798;28;20025;-46
2022/09/23 00:59:53;;;;;;;1.60;1.48;;;22.60;61.70;;;;;;5063134;28;20056;-47
2022/09/23 01:02:20;;;;;;;1.23;1.13;;;22.60;61.70;;;;;;5063142;28;20020;-47
2022/09/23 01:04:50;;;;;;;1.52;1.40;;;22.60;61.60;;;;;;5050707;28;20033;-46
2022/09/23 01:07:16;;;;;;;1.48;1.38;;;22.60;61.50;;;;;;5043210;28;20072;-46
2022/09/23 01:09:44;;;;;;;1.50;1.40;;;22.60;61.60;;;;;;5059884;28;20021;-45
2022/09/23 01:12:25;;;;;;;1.40;1.30;;;22.60;61.60;;;;;;5044072;28;20024;-46
2022/09/23 01:15:18;;;;;;;1.48;1.38;;;22.50;61.20;;;;;;5052533;28;20041;-46
2022/09/23 01:17:52;;;;;;;1.50;1.40;;;22.50;61.30;;;;;;5042786;28;20038;-46
2022/09/23 01:20:30;;;;;;;1.60;1.50;;;22.50;61.30;;;;;;5052034;28;20033;-47
2022/09/23 01:23:05;;;;;;;1.83;1.73;;;22.50;61.30;;;;;;5044967;28;20048;-47
2022/09/23 01:25:53;;;;;;;1.60;1.40;;;22.50;61.30;;;;;;5062469;28;20029;-48
2022/09/23 01:28:32;;;;;;;1.85;1.75;;;22.40;61.20;;;;;;5062465;28;20672;-46
2022/09/23 01:31:08;;;;;;;1.60;1.50;;;22.40;61.40;;;;;;5069965;28;20032;-46
2022/09/23 01:33:41;;;;;;;1.70;1.60;;;22.40;61.20;;;;;;5049771;28;20033;-46
2022/09/23 01:36:23;;;;;;;1.88;1.40;;;22.30;61.10;;;;;;5061455;28;20096;-46
2022/09/23 01:39:00;;;;;;;1.35;1.25;;;22.30;61.10;;;;;;5062695;28;20037;-47
2022/09/23 01:41:44;;;;;;;1.45;1.35;;;22.30;61.20;;;;;;5062714;28;20029;-45
2022/09/23 01:44:13;;;;;;;1.70;1.60;;;22.30;61.10;;;;;;5066176;28;20036;-46
2022/09/23 01:46:47;;;;;;;1.80;1.70;;;22.30;61.10;;;;;;5071531;28;20039;-47
2022/09/23 01:49:25;;;;;;;1.52;1.42;;;22.30;61.10;;;;;;5081239;28;20708;-47
2022/09/23 01:51:56;;;;;;;;;;;22.20;60.90;;;;;;5087465;28;20054;-46
2022/09/23 01:54:34;;;;;;;1.45;1.35;;;22.20;61.50;;;;;;5098631;28;19958;-48
2022/09/23 01:57:26;;;;;;;2.60;1.40;;;22.20;60.90;;;;;;5061011;28;20041;-47
2022/09/23 02:00:00;;;;;;;1.58;1.48;;;22.20;60.90;;;;;;5065611;28;20032;-46
2022/09/23 02:02:31;;;;;;;1.75;1.65;;;22.10;60.90;;;;;;5082454;28;20029;-46
2022/09/23 02:05:06;;;;;;;1.52;1.40;;;22.10;60.80;;;;;;5082723;28;20028;-46
2022/09/23 02:07:33;;;;;;;1.80;1.70;;;22.10;60.70;;;;;;5080799;28;20036;-48
2022/09/23 02:10:25;;;;;;;1.60;1.50;;;22.10;60.70;;;;;;5081766;28;20025;-46
2022/09/23 02:12:53;;;;;;;1.60;1.50;;;22.10;60.60;;;;;;5090249;28;20185;-47
2022/09/23 02:15:24;;;;;;;1.70;1.60;;;22.00;60.60;;;;;;5055206;28;20128;-48
2022/09/23 02:17:53;;;;;;;1.60;1.33;;;22.00;60.40;;;;;;5063114;28;20080;-46
2022/09/23 02:20:24;;;;;;;1.70;1.60;;;22.00;60.50;;;;;;5082491;28;20091;-54
2022/09/23 02:23:01;;;;;;;1.50;1.40;;;22.00;60.40;;;;;;5097888;28;20054;-54
2022/09/23 02:25:56;;;;;;;1.65;1.55;;;22.00;59.90;;;;;;5094307;28;20544;-52
2022/09/23 02:28:47;;;;;;;1.60;1.50;;;21.90;60.00;;;;;;5041984;28;20179;-53
2022/09/23 02:31:53;;;;;;;1.70;1.60;;;21.90;59.70;;;;;;5086996;28;20126;-54
2022/09/23 02:34:26;;;;;;;1.48;1.38;;;21.90;59.80;;;;;;5022895;28;20076;-52
2022/09/23 02:37:05;;;;;;;1.80;1.70;;;21.90;59.80;;;;;;5023395;28;20042;-55
2022/09/23 02:40:11;;;;;;;1.85;1.30;;;21.80;59.60;;;;;;5035170;28;20081;-53
2022/09/23 02:42:48;;;;;;;1.60;1.50;;;21.80;59.60;;;;;;5038264;28;20030;-55
2022/09/23 02:45:14;;;;;;;1.75;1.65;;;21.80;59.60;;;;;;5007299;28;20100;-53
2022/09/23 02:47:42;;;;;;;1.50;1.40;;;21.70;59.60;;;;;;5022841;28;20034;-55
2022/09/23 02:50:09;;;;;;;1.83;1.70;;;21.70;59.50;;;;;;5023091;28;20030;-51
2022/09/23 02:52:36;;;;;;;2.05;1.83;;;21.70;59.50;;;;;;5023175;28;20037;-50
2022/09/23 02:55:04;;;;;;;1.45;1.35;;;21.70;59.50;;;;;;5022768;28;20057;-55
2022/09/23 02:57:30;;;;;;;1.60;1.50;;;21.70;59.50;;;;;;5031499;28;20030;-53
2022/09/23 02:59:57;;;;;;;1.92;1.52;;;21.60;59.40;;;;;;5022408;28;20053;-53
2022/09/23 03:02:31;;;;;;;1.40;1.30;;;21.60;59.40;;;;;;5023006;28;20556;-50
2022/09/23 03:05:11;;;;;;;1.60;1.50;;;21.60;59.40;;;;;;5021433;28;20029;-53
2022/09/23 03:07:43;;;;;;;1.60;1.50;;;21.60;59.40;;;;;;5041305;28;20031;-52
2022/09/23 03:10:56;;;;;;;1.80;1.70;;;21.50;59.20;;;;;;5103345;28;20066;-49
2022/09/23 03:13:57;;;;;;;1.48;1.38;;;21.50;59.20;;;;;;5021416;28;20072;-51
2022/09/23 03:16:46;;;;;;;1.30;1.20;;;21.50;59.00;;;;;;4942777;28;20051;-53
2022/09/23 03:19:41;;;;;;;2.35;1.60;;;21.50;59.00;;;;;;4984089;28;20065;-51
2022/09/23 03:22:32;;;;;;;1.52;1.42;;;21.40;58.90;;;;;;5002643;28;20069;-53
2022/09/23 03:25:01;;;;;;;1.50;1.40;;;21.40;58.90;;;;;;4993268;28;20039;-52
2022/09/23 03:27:28;;;;;;;1.50;1.40;;;21.40;59.00;;;;;;5001387;28;20576;-53
2022/09/23 03:29:54;;;;;;;;;;;21.30;58.90;;;;;;5012539;28;20627;-51
2022/09/23 03:32:22;;;;;;;1.42;1.33;;;21.30;59.30;;;;;;4983220;28;19999;-54
2022/09/23 03:34:50;;;;;;;1.17;1.08;;;21.30;59.20;;;;;;5007391;28;20137;-53
2022/09/23 03:37:42;;;;;;;1.50;1.40;;;21.20;59.20;;;;;;4989846;28;20030;-54
2022/09/23 03:40:12;;;;;;;2.70;1.42;;;21.20;59.40;;;;;;5007951;28;20041;-51
2022/09/23 03:42:38;;;;;;;1.50;1.40;;;21.10;59.50;;;;;;4998500;28;20027;-50
2022/09/23 03:45:07;;;;;;;1.60;1.50;;;21.10;59.50;;;;;;5069956;28;20103;-52
2022/09/23 03:47:34;;;;;;;1.63;1.52;;;21.10;59.40;;;;;;5083888;28;20029;-51
2022/09/23 03:50:00;;;;;;;1.50;1.37;;;21.10;59.40;;;;;;5084824;28;20025;-53
2022/09/23 03:52:26;;;;;;;1.60;1.50;;;21.10;59.50;;;;;;5084442;28;20021;-54
2022/09/23 03:54:52;;;;;;;1.60;1.50;;;21.10;59.60;;;;;;5083728;28;20051;-52
2022/09/23 03:57:20;;;;;;;1.73;1.63;;;21.10;59.60;;;;;;5082975;28;20028;-53
2022/09/23 03:59:49;;;;;;;1.48;1.38;;;21.00;59.60;;;;;;5084412;28;20035;-52
2022/09/23 04:02:15;;;;;;;1.50;1.40;;;21.10;59.70;;;;;;5087534;28;20619;-51
2022/09/23 04:04:42;;;;;;;1.63;1.52;;;21.00;59.80;;;;;;5090032;28;20059;-54
2022/09/23 04:07:09;;;;;;;1.50;1.40;;;21.00;59.90;;;;;;5084247;28;20542;-52
2022/09/23 04:09:36;;;;;;;1.58;1.48;;;21.00;60.00;;;;;;5084130;28;20055;-52
2022/09/23 04:12:02;;;;;;;1.48;1.38;;;21.00;60.30;;;;;;5083888;28;20028;-50
2022/09/23 04:14:28;;;;;;;1.70;1.60;;;21.00;60.40;;;;;;5076057;28;20048;-51
2022/09/23 04:16:54;;;;;;;1.70;1.60;;;21.00;60.60;;;;;;5063610;28;20032;-52
2022/09/23 04:19:21;;;;;;;1.60;1.50;;;21.00;60.70;;;;;;5063920;28;20040;-50
2022/09/23 04:21:47;;;;;;;1.60;1.50;;;21.00;60.80;;;;;;5078777;28;20041;-49
2022/09/23 04:24:13;;;;;;;1.63;1.52;;;21.00;60.90;;;;;;5082784;28;20043;-53
2022/09/23 04:26:39;;;;;;;1.77;1.67;;;21.00;61.10;;;;;;5067265;28;20029;-53
2022/09/23 04:29:06;;;;;;;1.65;1.55;;;21.00;61.10;;;;;;5083818;28;20036;-52
2022/09/23 04:31:32;;;;;;;1.85;1.73;;;21.00;61.20;;;;;;5083432;28;20064;-51
2022/09/23 04:33:58;;;;;;;1.60;1.50;;;21.00;61.30;;;;;;5065915;28;20045;-49
2022/09/23 04:36:25;;;;;;;1.53;1.43;;;21.00;61.40;;;;;;5042528;28;20036;-49
2022/09/23 04:38:51;;;;;;;1.67;1.58;;;21.00;61.50;;;;;;5048089;28;20028;-53
2022/09/23 04:41:17;;;;;;;1.45;1.35;;;21.00;61.60;;;;;;5043552;28;20618;-51
2022/09/23 04:43:44;;;;;;;1.85;1.70;;;21.00;61.70;;;;;;5054582;28;20112;-49
2022/09/23 04:46:11;;;;;;;1.90;1.80;;;21.00;61.70;;;;;;5041729;28;20246;-53
2022/09/23 04:48:38;;;;;;;1.80;1.70;;;21.00;61.80;;;;;;5043296;28;20140;-51
2022/09/23 04:51:11;;;;;;;1.58;1.48;;;21.00;61.80;;;;;;5043336;28;20029;-55
2022/09/23 04:53:39;;;;;;;1.70;1.60;;;21.00;61.90;;;;;;5043237;28;20053;-52
2022/09/23 04:56:14;;;;;;;1.45;1.35;;;21.10;61.90;;;;;;5059665;28;20045;-52
2022/09/23 04:58:40;;;;;;;1.60;1.50;;;21.00;61.90;;;;;;5042960;28;20029;-53
2022/09/23 05:01:12;;;;;;;1.87;1.77;;;21.10;62.00;;;;;;5043313;28;20036;-51
2022/09/23 05:03:38;;;;;;;1.67;1.58;;;21.10;62.00;;;;;;5052352;28;20266;-53
2022/09/23 05:06:04;;;;;;;1.70;1.60;;;21.00;61.90;;;;;;5062843;28;20048;-54
2022/09/23 05:08:31;;;;;;;1.60;1.50;;;21.10;62.00;;;;;;5062933;28;20033;-51
2022/09/23 05:10:57;;;;;;;1.80;1.70;;;21.10;62.10;;;;;;5062882;28;20695;-54
2022/09/23 05:13:23;;;;;;;1.85;1.75;;;21.10;62.10;;;;;;5051681;28;20056;-51
2022/09/23 05:15:55;;;;;;;1.55;1.45;;;21.10;62.10;;;;;;5042522;28;20073;-51
2022/09/23 05:18:21;;;;;;;1.60;1.50;;;21.10;62.10;;;;;;5025945;28;20029;-51
2022/09/23 05:20:53;;;;;;;1.60;1.50;;;21.10;62.10;;;;;;5042585;28;20064;-51
2022/09/23 05:23:19;;;;;;;1.73;1.63;;;21.10;62.10;;;;;;5042778;28;20036;-53
2022/09/23 05:25:46;;;;;;;1.60;1.50;;;21.10;62.20;;;;;;5055998;28;20059;-54
2022/09/23 05:28:13;;;;;;;;;;;21.10;62.30;;;;;;5061016;28;20036;-51
2022/09/23 05:30:39;;;;;;;1.67;1.58;;;21.10;62.30;;;;;;5036336;28;19909;-50
2022/09/23 05:33:06;;;;;;;1.58;1.40;;;21.10;62.30;;;;;;5049903;28;20077;-53
2022/09/23 05:35:32;;;;;;;1.73;1.63;;;21.10;62.40;;;;;;5042923;28;20068;-54
2022/09/23 05:37:58;;;;;;;2.92;1.80;;;21.10;62.40;;;;;;5042418;28;20029;-50
2022/09/23 05:40:24;;;;;;;1.50;1.33;;;21.10;62.40;;;;;;5042158;28;20040;-53
2022/09/23 05:42:50;;;;;;;1.80;1.70;;;21.10;62.40;;;;;;5047752;28;20029;-51
2022/09/23 05:45:16;;;;;;;1.85;1.60;;;21.20;62.50;;;;;;5051929;28;20044;-52
2022/09/23 05:47:43;;;;;;;1.92;1.60;;;21.10;62.40;;;;;;5070051;28;20545;-50
2022/09/23 05:50:09;;;;;;;1.70;1.60;;;21.10;62.40;;;;;;5062447;28;20088;-51
2022/09/23 05:52:35;;;;;;;2.00;1.70;;;21.20;62.50;;;;;;5044004;28;20398;-51
2022/09/23 05:55:02;;;;;;;2.42;1.63;;;21.20;62.50;;;;;;5054420;28;20144;-53
2022/09/23 05:57:28;;;;;;;1.70;1.60;;;21.20;62.50;;;;;;5051713;28;20061;-52
2022/09/23 05:59:55;;;;;;;1.50;1.40;;;21.20;62.50;;;;;;5062000;28;20037;-53
2022/09/23 06:02:21;;;;;;;1.77;1.67;;;21.20;62.50;;;;;;5043755;28;20033;-52
2022/09/23 06:04:47;;;;;;;1.58;1.48;;;21.20;62.50;;;;;;5062392;28;20127;-49
2022/09/23 06:07:13;;;;;;;2.70;1.92;;;21.20;62.50;;;;;;5062144;28;20028;-53
2022/09/23 06:09:41;;;;;;;2.10;1.50;;;21.20;62.40;;;;;;5061960;28;20025;-52
2022/09/23 06:12:07;;;;;;;1.67;1.50;;;21.20;62.40;;;;;;5061460;28;20029;-50
2022/09/23 06:14:33;;;;;;;1.48;1.38;;;21.20;62.50;;;;;;5053927;28;20041;-49
2022/09/23 06:16:59;;;;;;;1.60;1.50;;;21.20;62.50;;;;;;5061559;28;20043;-52
2022/09/23 06:19:25;;;;;;;1.70;1.60;;;21.20;62.50;;;;;;5062582;28;20028;-52
2022/09/23 06:21:51;;;;;;;2.22;1.55;;;21.20;62.60;;;;;;5061536;28;20024;-52
2022/09/23 06:24:17;;;;;;;1.70;1.60;;;21.20;62.60;;;;;;5060574;28;20025;-50
2022/09/23 06:26:44;;;;;;;1.70;1.58;;;21.30;62.60;;;;;;5041991;28;20026;-53
2022/09/23 06:29:10;;;;;;;1.60;1.50;;;21.20;62.60;;;;;;5023903;28;20032;-52
2022/09/23 06:31:37;;;;;;;1.65;1.50;;;21.30;62.70;;;;;;5056615;28;20052;-53
2022/09/23 06:34:04;;;;;;;1.90;1.65;;;21.30;62.70;;;;;;5061011;28;20068;-50
2022/09/23 06:36:30;;;;;;;1.77;1.67;;;21.30;62.70;;;;;;5062415;28;20061;-53
2022/09/23 06:38:56;;;;;;;1.55;1.45;;;21.20;62.60;;;;;;5061653;28;20029;-51
2022/09/23 06:41:22;;;;;;;1.55;1.45;;;21.20;62.70;;;;;;5061172;28;20043;-52
2022/09/23 06:43:48;;;;;;;1.50;1.40;;;21.30;62.80;;;;;;5059137;28;20036;-53
2022/09/23 06:46:15;;;;;;;1.58;1.48;;;21.30;62.80;;;;;;5041745;28;20033;-52
2022/09/23 06:48:42;;;;;;;2.33;1.65;;;21.30;62.80;;;;;;5041990;28;20026;-52
2022/09/23 06:51:11;;;;;;;1.67;1.42;;;21.30;63.50;;;;;;5041898;28;20041;-52
2022/09/23 06:53:37;;;;;;;1.70;1.52;;;21.30;62.80;;;;;;5032862;28;20028;-49
2022/09/23 06:56:08;;;;;;;1.70;1.60;;;21.30;62.70;;;;;;5045238;28;20083;-50
2022/09/23 06:58:34;;;;;;;1.70;1.48;;;21.30;62.70;;;;;;5042874;28;20021;-52
2022/09/23 07:01:06;;;;;;;1.50;1.40;;;21.30;62.70;;;;;;5063785;28;20052;-53
2022/09/23 07:03:32;;;;;;;1.65;1.55;;;21.30;62.70;;;;;;5081400;28;20035;-52
2022/09/23 07:05:58;;;;;;;1.47;1.30;;;21.30;62.70;;;;;;5081574;28;20027;-54
2022/09/23 07:08:26;;;;;;;1.47;1.37;;;21.30;62.80;;;;;;5081704;28;20275;-49
2022/09/23 07:10:53;;;;;;;1.40;1.30;;;21.30;62.80;;;;;;5076321;28;20029;-51
2022/09/23 07:13:19;;;;;;;1.60;1.50;;;21.30;62.90;;;;;;5064435;28;20021;-51
2022/09/23 07:15:51;;;;;;;1.85;1.50;;;21.30;62.90;;;;;;5052213;28;20072;-53
2022/09/23 07:18:18;;;;;;;1.42;1.30;;;21.30;62.90;;;;;;5064911;28;20033;-54
2022/09/23 07:20:47;;;;;;;1.50;1.40;;;21.30;62.90;;;;;;5064835;28;20021;-54
2022/09/23 07:23:13;;;;;;;1.58;1.20;;;21.30;62.90;;;;;;5064364;28;20493;-52
2022/09/23 07:25:41;;;;;;;1.73;1.63;;;21.30;63.00;;;;;;5064263;28;20033;-49
2022/09/23 07:28:07;;;;;;;1.67;1.20;;;21.30;63.00;;;;;;5065717;28;20032;-52
2022/09/23 07:30:37;;;;;;;1.63;1.13;;;21.30;63.00;;;;;;5067862;28;20049;-55
2022/09/23 07:33:03;;;;;;;2.25;1.70;;;21.30;63.00;;;;;;5084390;28;20049;-51
2022/09/23 07:35:29;;;;;;;1.42;1.33;;;21.30;63.00;;;;;;5084708;28;20032;-52
2022/09/23 07:37:55;;;;;;;1.52;1.42;;;21.30;63.00;;;;;;5084785;28;20025;-49
2022/09/23 07:40:22;;;;;;;1.50;1.40;;;21.30;63.00;;;;;;5084359;28;20024;-50
2022/09/23 07:42:48;;;;;;;1.83;1.45;;;21.30;63.00;;;;;;5078893;28;20047;-52
2022/09/23 07:45:14;;;;;;;1.40;1.30;;;21.30;63.00;;;;;;5071648;28;20056;-50
2022/09/23 07:47:40;;;;;;;1.40;1.30;;;21.30;63.00;;;;;;5064330;28;20040;-51
2022/09/23 07:50:09;;;;;;;1.45;1.35;;;21.30;63.00;;;;;;5064664;28;20127;-51
2022/09/23 07:52:36;;;;;;;1.50;1.40;;;21.30;63.10;;;;;;5064333;28;20028;-52
2022/09/23 07:55:03;;;;;;;1.55;1.40;;;21.30;63.20;;;;;;5055798;28;20073;-53
2022/09/23 07:57:29;;;;;;;1.58;1.35;;;21.30;63.20;;;;;;5054417;28;20021;-53
2022/09/23 07:59:55;;;;;;;1.20;1.10;;;21.30;63.20;;;;;;5069611;28;20032;-48
2022/09/23 08:02:22;;;;;;;1.20;1.10;;;21.30;63.20;;;;;;5073499;28;20035;-51
2022/09/23 08:04:48;;;;;;;1.60;1.50;;;21.30;63.10;;;;;;5064730;28;20035;-51
2022/09/23 08:07:15;;;;;;;1.35;1.25;;;21.30;63.20;;;;;;5084193;28;20025;-54
2022/09/23 08:09:42;;;;;;;1.23;1.13;;;21.30;63.30;;;;;;5084373;28;20111;-47
2022/09/23 08:12:09;;;;;;;1.42;1.20;;;21.30;63.40;;;;;;5084205;28;20029;-50
2022/09/23 08:14:35;;;;;;;2.72;1.38;;;21.30;63.30;;;;;;5043674;28;20037;-52
2022/09/23 08:17:01;;;;;;;1.52;1.42;;;21.30;63.30;;;;;;5044086;28;20036;-44
2022/09/23 08:19:27;;;;;;;1.90;1.40;;;21.30;63.50;;;;;;5061943;28;20025;-43
2022/09/23 08:21:53;;;;;;;1.58;1.48;;;21.30;63.50;;;;;;5063457;28;20041;-43
2022/09/23 08:24:21;;;;;;;9.43;1.70;;;21.30;63.60;;;;;;5061716;28;20729;-43
2022/09/23 08:26:47;;;;;;;6.85;1.60;;;21.30;63.80;;;;;;5053227;28;20033;-47
2022/09/23 08:29:14;;;;;;;4.63;1.52;;;21.30;63.80;;;;;;5044065;28;20116;-46
2022/09/23 08:31:41;;;;;;;10.68;1.80;;;21.30;63.90;;;;;;5043907;28;20038;-47
2022/09/23 08:34:07;;;;;;;8.85;1.80;;;21.30;64.20;;;;;;5059429;28;20053;-45
2022/09/23 08:36:33;;;;;;;9.25;2.22;;;21.30;64.30;;;;;;5081280;28;20098;-48
2022/09/23 08:38:59;;;;;;;7.00;2.30;;;21.30;64.70;;;;;;5096602;28;20090;-47
2022/09/23 08:41:29;;;;;;;3.72;1.90;;;21.30;64.80;;;;;;5083714;28;20066;-47
2022/09/23 08:44:36;;;;;;;7.43;1.77;;;21.30;64.70;;;;;;5079677;28;20088;-45
2022/09/23 08:47:11;;;;;;;7.38;1.67;;;21.40;64.70;;;;;;5061515;28;20029;-46
2022/09/23 08:49:41;;;;;;;6.35;2.00;;;21.30;64.40;;;;;;5063717;28;20033;-46
2022/09/23 08:52:26;;;;;;;3.97;1.90;;;21.30;64.30;;;;;;5062415;28;20481;-46
2022/09/23 08:54:52;;;;;;;3.85;1.60;;;21.40;64.30;;;;;;5069442;28;20051;-46
2022/09/23 08:57:57;;;;;;;3.60;1.80;;;21.30;64.10;;;;;;5083193;28;20027;-51
2022/09/23 09:00:24;;;;;;;3.25;1.70;;;21.30;63.90;;;;;;5081103;28;20040;-46
2022/09/23 09:02:50;;;;;;;2.65;1.80;;;21.30;63.80;;;;;;5065576;28;20032;-46
2022/09/23 09:05:18;;;;;;;3.45;1.55;;;21.30;63.70;;;;;;5083374;28;20032;-46
2022/09/23 09:07:45;;;;;;;2.70;1.80;;;21.30;63.60;;;;;;5065464;28;20032;-48
2022/09/23 09:10:23;;;;;;;2.40;1.58;;;21.30;63.50;;;;;;5081790;28;20362;-46
2022/09/23 09:13:28;;;;;;;5.32;1.55;;;21.30;63.40;;;;;;5081952;28;20036;-45
2022/09/23 09:16:14;;;;;;;2.20;1.40;;;21.30;63.30;;;;;;5081616;28;20155;-47
2022/09/23 09:18:49;;;;;;;1.42;1.30;;;21.30;63.20;;;;;;5069003;28;20036;-46
2022/09/23 09:21:16;;;;;;;1.92;1.45;;;21.30;63.20;;;;;;5081925;28;20033;-45
2022/09/23 09:23:55;;;;;;;2.03;1.38;;;21.30;63.20;;;;;;5082728;28;20020;-45
2022/09/23 09:26:31;;;;;;;2.30;1.20;;;21.20;63.00;;;;;;5064388;28;20508;-45
2022/09/23 09:29:04;;;;;;;2.85;1.45;;;21.20;63.10;;;;;;5061841;28;20040;-45
2022/09/23 09:31:39;;;;;;;1.23;1.13;;;21.20;63.10;;;;;;5076915;28;20044;-46
2022/09/23 09:34:08;;;;;;;1.70;1.48;;;21.20;63.00;;;;;;5063418;28;20098;-45
2022/09/23 09:36:39;;;;;;;1.50;1.23;;;21.20;63.10;;;;;;5044764;28;20043;-47
2022/09/23 09:39:05;;;;;;;2.08;1.50;;;21.20;63.00;;;;;;5044838;28;20059;-45
2022/09/23 09:41:31;;;;;;;1.42;1.05;;;21.20;63.10;;;;;;5062440;28;20039;-48
2022/09/23 09:44:00;;;;;;;1.60;1.20;;;21.20;63.00;;;;;;5061636;28;20052;-47
2022/09/23 09:47:06;;;;;;;1.33;1.23;;;21.20;63.00;;;;;;5044647;28;20059;-46
2022/09/23 09:50:08;;;;;;;1.35;1.10;;;21.20;63.00;;;;;;5031328;28;20044;-48
2022/09/23 09:52:34;;;;;;;1.77;1.30;;;21.20;63.00;;;;;;5062389;28;20055;-46
2022/09/23 09:55:12;;;;;;;3.03;1.40;;;21.20;63.00;;;;;;5055142;28;20033;-47
2022/09/23 09:57:52;;;;;;;1.20;1.10;;;21.20;63.00;;;;;;5042760;28;20022;-48
2022/09/23 10:00:21;;;;;;;1.40;1.30;;;21.10;63.00;;;;;;5042525;28;20034;-48
2022/09/23 10:03:13;;;;;;;1.42;1.20;;;21.10;63.00;;;;;;5042562;28;20032;-48
2022/09/23 10:05:45;;;;;;;2.13;1.20;;;21.10;63.00;;;;;;5029172;28;20076;-47
2022/09/23 10:08:33;;;;;;;1.48;1.20;;;21.10;63.00;;;;;;5042458;28;20048;-47
2022/09/23 10:11:02;;;;;;;2.33;1.30;;;21.10;63.00;;;;;;5042329;28;20030;-45
2022/09/23 10:13:29;;;;;;;1.88;1.30;;;21.10;63.10;;;;;;5053176;28;20442;-46
2022/09/23 10:16:02;;;;;;;1.20;1.10;;;21.10;63.10;;;;;;5060861;28;20051;-45
2022/09/23 10:18:30;;;;;;;1.90;1.40;;;21.10;63.10;;;;;;5062430;28;20021;-45
2022/09/23 10:21:13;;;;;;;4.53;1.38;;;21.10;63.10;;;;;;5062180;28;20074;-46
2022/09/23 10:23:44;;;;;;;1.58;1.27;;;21.00;63.10;;;;;;5044535;28;20036;-48
2022/09/23 10:26:11;;;;;;;1.45;1.23;;;21.10;63.10;;;;;;5027633;28;20040;-45
2022/09/23 10:28:41;;;;;;;2.50;1.55;;;21.00;63.10;;;;;;5061939;28;20033;-45
2022/09/23 10:31:26;;;;;;;1.30;1.10;;;21.00;63.10;;;;;;5044398;28;20025;-46
2022/09/23 10:33:59;;;;;;;1.25;1.15;;;21.00;63.20;;;;;;5061684;28;20049;-45
2022/09/23 10:36:29;;;;;;;1.40;1.30;;;21.00;63.20;;;;;;5061845;28;20053;-46
2022/09/23 10:48:15;;;;;;;2.83;1.38;;;21.00;63.30;;;;;;5045904;28;20036;-45
2022/09/23 10:50:50;;;;;;;1.02;1.00;;;21.00;63.30;;;;;;5045690;28;20049;-46
2022/09/23 10:53:35;;;;;;;1.33;1.10;;;20.90;63.20;;;;;;5028089;28;20089;-47
2022/09/23 10:56:08;;;;;;;2.42;1.23;;;21.00;63.30;;;;;;5060984;28;20041;-46
2022/09/23 10:58:58;;;;;;;1.60;1.08;;;20.90;63.20;;;;;;5028772;28;20029;-47
2022/09/23 11:02:06;;;;;;;1.58;1.25;;;20.90;63.30;;;;;;5045975;28;20092;-47
2022/09/23 11:04:54;;;;;;;1.30;1.20;;;20.90;63.30;;;;;;5014578;28;20049;-43
2022/09/23 11:07:22;;;;;;;1.70;1.10;;;20.90;63.30;;;;;;5045319;28;20036;-43
2022/09/23 11:09:57;;;;;;;1.38;1.20;;;20.90;63.40;;;;;;5052590;28;20036;-45
2022/09/23 11:12:26;;;;;;;1.40;1.15;;;20.90;63.40;;;;;;5065400;28;20025;-44
2022/09/23 11:15:17;;;;;;;1.10;1.00;;;20.90;63.40;;;;;;5064678;28;20037;-44
2022/09/23 11:18:28;;;;;;;1.67;1.30;;;20.90;63.50;;;;;;5050094;28;20033;-44
2022/09/23 11:20:54;;;;;;;1.48;1.10;;;20.90;63.50;;;;;;4964630;29;20043;-44
2022/09/23 11:23:44;;;;;;;1.30;1.10;;;20.90;63.50;;;;;;4948140;29;20027;-44
2022/09/23 11:26:26;;;;;;;1.58;1.30;;;20.90;63.60;;;;;;4964479;29;20036;-44
2022/09/23 11:28:59;;;;;;;2.53;1.35;;;20.80;63.50;;;;;;4944781;28;20091;-44
2022/09/23 11:31:56;;;;;;;1.42;1.20;;;20.80;63.50;;;;;;4965976;28;20047;-44
2022/09/23 11:35:14;;;;;;;1.85;1.13;;;20.80;63.50;;;;;;4964287;29;20500;-44
2022/09/23 11:37:48;;;;;;;1.20;1.05;;;20.80;63.50;;;;;;4944509;29;20044;-44
2022/09/23 11:40:20;;;;;;;1.25;1.13;;;20.80;63.60;;;;;;4929863;29;20079;-45
2022/09/23 11:42:58;;;;;;;1.40;1.30;;;20.80;63.70;;;;;;4929335;29;20555;-44
2022/09/23 11:45:33;;;;;;;1.55;1.20;;;20.80;63.70;;;;;;4914107;29;20103;-46
2022/09/23 11:48:06;;;;;;;1.15;1.05;;;20.80;63.70;;;;;;4929690;29;20113;-44
2022/09/23 11:50:37;;;;;;;1.33;1.10;;;20.80;63.70;;;;;;4943331;29;20078;-44
2022/09/23 11:53:36;;;;;;;1.20;1.10;;;20.80;63.70;;;;;;4913371;29;20035;-45
2022/09/23 11:56:06;;;;;;;1.00;0.90;;;20.70;63.70;;;;;;4947161;28;20611;-45
2022/09/23 11:58:39;;;;;;;1.48;1.10;;;20.70;63.70;;;;;;5002344;28;20034;-44
2022/09/23 12:01:34;;;;;;;1.50;1.30;;;20.70;63.80;;;;;;4954423;28;20076;-44
2022/09/23 12:04:14;;;;;;;1.52;1.30;;;20.70;63.80;;;;;;4973506;28;20054;-44
2022/09/23 12:06:44;;;;;;;1.30;1.20;;;20.70;63.80;;;;;;4971084;28;20054;-45
2022/09/23 12:09:18;;;;;;;1.85;1.13;;;20.70;63.80;;;;;;5018590;28;20040;-45
2022/09/23 12:12:16;;;;;;;1.40;1.30;;;20.70;63.80;;;;;;5030757;28;20029;-44
2022/09/23 12:14:57;;;;;;;1.20;1.10;;;20.60;63.80;;;;;;5027517;28;20040;-44
2022/09/23 12:17:32;;;;;;;1.35;1.20;;;20.70;63.80;;;;;;5031221;28;20489;-44
2022/09/23 12:20:10;;;;;;;1.08;1.00;;;20.70;63.90;;;;;;5064280;28;20035;-45
2022/09/23 12:23:00;;;;;;;1.27;1.17;;;20.60;63.80;;;;;;5047194;28;20025;-45
2022/09/23 12:25:55;;;;;;;1.40;1.13;;;20.60;63.80;;;;;;5046349;28;20088;-43
2022/09/23 12:28:32;;;;;;;1.35;1.17;;;20.60;63.80;;;;;;5045221;28;20056;-44
2022/09/23 12:30:59;;;;;;;1.23;1.13;;;20.60;63.90;;;;;;5046341;28;20033;-45
2022/09/23 12:33:26;;;;;;;1.10;1.00;;;20.60;63.90;;;;;;5052129;28;20049;-45
2022/09/23 12:36:03;;;;;;;1.20;1.10;;;20.60;63.90;;;;;;5083839;28;20104;-45
2022/09/23 12:38:50;;;;;;;1.35;1.23;;;20.60;64.00;;;;;;5065847;28;20014;-47
2022/09/23 12:41:25;;;;;;;1.33;1.20;;;20.60;64.00;;;;;;5063627;28;20595;-44
2022/09/23 12:44:11;;;;;;;1.20;1.08;;;20.60;64.00;;;;;;5075321;28;20037;-47
2022/09/23 12:46:37;;;;;;;1.50;1.40;;;20.60;64.00;;;;;;5064048;28;20044;-46
2022/09/23 12:49:05;;;;;;;1.70;1.10;;;20.50;64.00;;;;;;5062209;28;20021;-47
2022/09/23 12:51:33;;;;;;;1.67;1.05;;;20.60;64.10;;;;;;5067633;28;20289;-46
2022/09/23 12:54:02;;;;;;;1.63;1.10;;;20.60;64.10;;;;;;5082391;28;20084;-45
2022/09/23 12:56:31;;;;;;;2.00;1.30;;;20.60;64.10;;;;;;5083241;28;20020;-47
2022/09/23 12:59:13;;;;;;;1.30;1.10;;;20.60;64.10;;;;;;5083309;28;20039;-47
2022/09/23 13:01:39;;;;;;;2.42;1.23;;;20.60;64.20;;;;;;5083897;28;20033;-46
2022/09/23 13:07:07;;;;;;;1.43;1.17;;;20.50;64.20;;;;;;5021255;28;20041;-46
2022/09/23 13:09:47;;;;;;;3.05;1.23;;;20.50;64.20;;;;;;5004274;28;20072;-47
2022/09/23 13:12:27;;;;;;;1.30;1.15;;;20.50;64.20;;;;;;4988993;28;20034;-45
2022/09/23 13:14:54;;;;;;;1.42;1.33;;;20.50;64.20;;;;;;5003728;28;20169;-46
2022/09/23 13:17:25;;;;;;;1.23;1.10;;;20.50;64.20;;;;;;5017282;28;20038;-45
2022/09/23 13:19:59;;;;;;;2.45;1.15;;;20.50;64.20;;;;;;5017059;28;20034;-46
2022/09/23 13:22:47;;;;;;;1.20;1.10;;;20.50;64.20;;;;;;5021077;28;20114;-45
2022/09/23 13:25:34;;;;;;;1.25;1.13;;;20.50;64.20;;;;;;5020533;28;20093;-49
2022/09/23 13:28:01;;;;;;;1.17;1.08;;;20.50;64.20;;;;;;5036853;28;20038;-46